Aeroporto :
LOGIN :

Iscrizione | Disclaimer

   EN    FR    IT 

 










Sommario :    VFR   VFR Marginale   IFR   IFR Intensivo   IFR Molto Intensivo
Visibilità : 
Base nubi : 
>= 8 km
>= 3000ft
5 / 8 km
1000 / 3000 ft
1500m / 5 km
500 / 1000 ft
800 / 1500m
200 / 500 ft
< 800m
< 200 ft
Simboli :   Temporali  Nebbia  Neve Forte  Precipitazioni Forti  Vento > 20 kt
SIGMETs :   Varie  Temporali  Ghiacco  Turbolenza  Onda orograficha  Ceneri Vulcaniche






- Altitudine del aeroporto : 459 ft
- Codice IATA : CER


LFRC - Cherbourg / Maupertus

ULTIMO METAR :
  • 250830Z AUTO 33013KT 290V010 9999 BKN020 BKN026 BKN042 11/07 Q1005 TEMPO SHRA SCT015CB BKN020TCU BECMG 33020G35KT

METARs OBSOLETI :
  • 250800Z AUTO 33013G25KT 300V010 9999 SCT024 SCT032 11/07 Q1004 TEMPO SHRA SCT015CB BKN020TCU BECMG 33020G35KT
  • 250730Z AUTO 33012G23KT 300V360 9999 BKN025 BKN045 BKN054 11/06 Q1003 TEMPO SHRA SCT015CB BKN020TCU BECMG 33020G35KT
  • 250700Z AUTO 33013G24KT 280V360 9999 SCT026 BKN032 BKN045 11/06 Q1002 TEMPO SHRA SCT015CB BKN020TCU BECMG 33020G35KT
  • 250630Z AUTO 32012KT 280V360 9999 SCT031 BKN037 BKN046 11/05 Q1002 TEMPO SHRA SCT015CB BKN020TCU BECMG 33020G35KT
  • 250600Z AUTO 33013G24KT 290V360 9999 SCT028 BKN034 BKN047 11/06 Q1001 TEMPO SHRA SCT015CB BKN020TCU BECMG 33020G35KT
  • 250530Z AUTO 33012KT 290V360 9999 BKN027 BKN035 BKN046 11/06 Q1000 TEMPO SHRA SCT015CB BKN020TCU BECMG 33020G35KT

TAF TAF LFRC
Valido dal 25 a 06 ore il 25 a 15 ore UTC


250500Z 2506/2515 33015G25KT 9999 BKN025
BECMG 2506/2509 33020G35KT
TEMPO 2506/2512 5000 SHRA SCT015CB BKN020TCU



MetMap, La meteo Aeronautica in un colpo d'occhio ! - Copyright ORBIFLY Dicembre 2007 - Disclaimer

ORBIFLY MET'MAP TEAM :

Programmazione e sviluppo : Alexandra Zaïnal
Concezione : Baudouin d'Aumeries
Aiuto per la programmazione : Marc-Olivier Méhu
Supporto tecnico e logistico : Manuel Goepfert
Aiuto per la traduzione : Arnaldo La Scala

Contatto : metmap@orbifly.com




FONTI E CREDITI :

   NOAA